Pagrindinis puslapis
METAR-TAF:

METAR-TAF

Oro uostai :

Port Sudan, Sudanas

platuma: 19-26N, ilguma: 037-14E, Aukštis: 138 m

METAR: trūkstamas

Laikas: 10:01 (08:01 UTC)

Prognozė

Ataskaita buvo paskelbta 3 valandos ir 1 minutes, ne 05:00 UTC
Prognozė galioja nuo 26 metu 06 UTC su 27 metu 12 UTC
Vėjas 6 kt iš Vakarų
Matomumas 10 km arba daugiau
Išsisklaidę debesys ne aukštis 3000 ft
Išsisklaidę debesys ne aukštis 13000 ft
Tapsmas
nuo 26 metu 10 UTC su 26 metu 12 UTC
Vėjas 12 kt iš Rytų/Šiaurės Rytų su gūsio iki 22 kt

TAF: HSPN 260500Z 2606/2712 27006KT 9999 SCT030 SCT130 BECMG 2610/2612 07012G22KT

Orai ataskaitas ir orų prognozės (METAR, TAF).

turimą stotys yra geltonos ir raudonos taškus žemėlapyje.

Perkelti pele per norėdami pamatyti stoties vardą.

Tada spustelėkite, norėdami matyti oro stebėjimo ir prognozės.

Norėdami pakeisti žemėlapį: spustelėkite ant žalios mygtukų su juodo kryžiaus žemyn,; žalią mygtuką su brūkšneliu, jei norite nutolinti; arba žalių rodyklių gretimoms žemėlapius.


METAR-TAF: